Aérodrome :
LOGIN :

S'inscrire | Disclaimer

   EN    FR    IT 

 










Légende :    VFR   VFR Marginal   IFR   IFR Intensif   IFR Très Intensif
Visi : 
Plafond : 
>= 8 km
>= 3000ft
5 à 8 km
1000 à 3000 ft
1500m à 5 km
500 à 1000 ft
800 à 1500m
200 à 500 ft
< 800m
< 200 ft
Symboles :   Orages  Brouillard  Fortes neiges  Fortes précipitations  Vent > 20 kt
SIGMETs :   Divers  Orages  Givrage  Turbulence  Onde Orograph.  Cendres Volcan.







- Altitude de l'aérodrome : 359 ft
- Code IATA : BVA
- Voir les cartes d'approche


LFOB - Beauvais

DERNIER METAR :
  • 221800Z AUTO 31008KT 290V360 CAVOK 26/15 Q1016 NOSIG

METARs EXPIRÉS :
  • 221730Z AUTO 30007KT 270V340 CAVOK 27/14 Q1015 NOSIG
  • 221700Z AUTO 29008KT 240V320 CAVOK 27/14 Q1015 NOSIG
  • 221630Z AUTO 28004KT 250V360 CAVOK 28/14 Q1015 NOSIG
  • 221600Z AUTO 33004KT 290V030 CAVOK 28/13 Q1016 NOSIG
  • 221530Z AUTO 29003KT 200V360 CAVOK 28/14 Q1016 NOSIG

TAF TAF LFOB
Valide du 22 à 18h jusqu'au 23 à 18h UTC


221700Z 2218/2318 VRB03KT CAVOK
ATIS : +33 3 44 11 49 28
Pas de NOTAMs connus pour ce terrain.



MET'MAP, la Météo Aéronautique d'un coup d'oeil ! - Copyright ORBIFLY Décembre 2007 - Disclaimer

ORBIFLY MET'MAP TEAM :

Programmation & Développement : Alexandra Zaïnal
Conception & Développement : Baudouin d'Aumeries
Co-Programmation & Développement : Marc-Olivier Méhu
Soutien technique & logistique : Manuel Goepfert

Contact : metmap@orbifly.com




SOURCES & CREDITS :

   NOAA